Time;durP1;ratioP1;P1;durP2;ratioP2;P2;SDS_P1;SDS_P2;PMS_P1;PMS_P2;Temp;Humidity;BMP_temperature;BMP_pressure;BME280_temperature;BME280_humidity;BME280_pressure;Samples;Min_cycle;Max_cycle;Signal;HPM_P1;HPM_P2
2020/12/01 00:00:35;;;;;;;21.00;13.53;;;6.60;87.30;;;;;;5094017;28;20023;-79
2020/12/01 00:03:00;;;;;;;22.57;14.40;;;6.60;87.50;;;;;;5095802;28;20053;-79
2020/12/01 00:05:26;;;;;;;21.37;13.93;;;6.70;87.50;;;;;;5093832;28;20337;-79
2020/12/01 00:07:52;;;;;;;19.90;13.50;;;6.70;87.30;;;;;;5122534;27;20031;-79
2020/12/01 00:10:19;;;;;;;23.87;15.00;;;6.60;87.30;;;;;;5132443;27;20064;-79
2020/12/01 00:12:46;;;;;;;20.43;13.77;;;6.70;87.50;;;;;;5114333;27;20087;-78
2020/12/01 00:15:19;;;;;;;25.33;15.23;;;6.70;87.60;;;;;;5113752;27;20039;-79
2020/12/01 00:17:45;;;;;;;20.75;14.68;;;6.70;87.50;;;;;;5133815;27;20031;-78
2020/12/01 00:20:13;;;;;;;21.50;14.20;;;6.70;87.40;;;;;;5116302;27;20042;-79
2020/12/01 00:22:39;;;;;;;23.53;14.33;;;6.70;87.40;;;;;;5127186;27;20023;-79
2020/12/01 00:25:07;;;;;;;22.97;14.70;;;6.70;87.50;;;;;;5115162;27;20038;-79
2020/12/01 00:27:33;;;;;;;23.07;15.23;;;6.70;87.60;;;;;;5150411;27;20445;-79
2020/12/01 00:29:59;;;;;;;25.97;14.33;;;6.70;87.60;;;;;;5132598;27;20072;-78
2020/12/01 00:32:25;;;;;;;21.17;14.27;;;6.70;87.60;;;;;;5126418;27;20031;-79
2020/12/01 00:34:50;;;;;;;24.40;16.00;;;6.70;87.70;;;;;;5106804;28;20050;-80
2020/12/01 00:37:16;;;;;;;22.53;15.63;;;6.80;87.60;;;;;;5119507;27;20032;-80
2020/12/01 00:39:42;;;;;;;25.50;16.83;;;6.80;87.60;;;;;;5098179;28;20406;-80
2020/12/01 00:42:07;;;;;;;24.20;15.50;;;6.80;87.50;;;;;;5115965;28;20103;-80
2020/12/01 00:44:33;;;;;;;26.07;16.30;;;6.90;87.60;;;;;;5132853;27;20099;-80
2020/12/01 00:46:59;;;;;;;24.80;17.13;;;6.90;87.60;;;;;;5132850;27;20035;-79
2020/12/01 00:49:24;;;;;;;26.10;17.10;;;7.00;87.60;;;;;;5113087;28;20565;-80
2020/12/01 00:51:50;;;;;;;27.30;17.47;;;7.00;87.50;;;;;;5097087;28;20544;-80
2020/12/01 00:54:16;;;;;;;29.47;18.83;;;7.00;87.50;;;;;;5113141;28;20111;-80
2020/12/01 00:56:42;;;;;;;26.23;18.53;;;7.00;87.50;;;;;;5097093;28;20463;-80
2020/12/01 00:59:08;;;;;;;26.77;17.40;;;7.00;87.60;;;;;;5114326;28;20034;-79
2020/12/01 01:01:34;;;;;;;26.57;17.73;;;7.10;87.50;;;;;;5113040;28;20330;-80
2020/12/01 01:04:00;;;;;;;35.00;20.90;;;7.00;87.50;;;;;;5113810;28;20471;-80
2020/12/01 01:06:25;;;;;;;27.93;19.60;;;7.10;87.60;;;;;;5131475;28;20431;-79
2020/12/01 01:08:51;;;;;;;26.40;18.63;;;7.00;87.60;;;;;;5113523;28;20479;-79
2020/12/01 01:11:17;;;;;;;29.00;18.83;;;7.10;87.70;;;;;;5115934;27;20039;-79
2020/12/01 01:13:42;;;;;;;32.77;19.93;;;7.10;87.70;;;;;;5117790;27;20035;-80
2020/12/01 01:16:08;;;;;;;30.50;19.60;;;7.10;87.70;;;;;;5136336;27;20111;-79
2020/12/01 01:18:34;;;;;;;29.07;19.73;;;7.10;87.80;;;;;;5117219;27;20023;-79
2020/12/01 01:21:00;;;;;;;28.20;19.33;;;7.10;87.80;;;;;;5100777;27;20079;-80
2020/12/01 01:23:26;;;;;;;29.00;19.50;;;7.20;87.80;;;;;;5100095;27;20066;-80
2020/12/01 01:25:52;;;;;;;27.17;19.13;;;7.20;87.90;;;;;;5116548;27;20019;-79
2020/12/01 01:28:18;;;;;;;31.37;20.37;;;7.20;87.80;;;;;;5135106;27;20023;-77
2020/12/01 01:30:44;;;;;;;29.60;19.23;;;7.20;87.80;;;;;;5117525;27;20027;-81
2020/12/01 01:33:10;;;;;;;26.30;19.30;;;7.20;87.80;;;;;;5117305;27;20127;-77
2020/12/01 01:35:37;;;;;;;29.43;19.20;;;7.30;87.80;;;;;;5099373;27;20015;-82
2020/12/01 01:38:04;;;;;;;27.83;18.10;;;7.30;87.80;;;;;;5100480;27;20062;-78
2020/12/01 01:40:31;;;;;;;26.07;17.50;;;7.40;87.80;;;;;;5116137;27;20039;-79
2020/12/01 01:42:58;;;;;;;23.03;16.07;;;7.40;87.70;;;;;;5135371;27;20490;-76
2020/12/01 01:45:42;;;;;;;22.90;16.83;;;7.40;87.80;;;;;;5134585;27;20031;-79
2020/12/01 01:48:30;;;;;;;17.33;12.37;;;7.40;87.80;;;;;;5117103;27;20023;-79
2020/12/01 01:50:58;;;;;;;20.53;11.13;;;7.40;87.80;;;;;;5134805;27;20051;-79
2020/12/01 01:53:24;;;;;;;10.00;7.80;;;7.40;87.80;;;;;;5134817;27;20031;-79
2020/12/01 01:55:55;;;;;;;9.97;6.47;;;7.40;87.60;;;;;;5135118;27;20031;-79
2020/12/01 01:58:26;;;;;;;7.43;5.73;;;7.40;87.60;;;;;;5095135;28;20043;-79
2020/12/01 02:01:04;;;;;;;4.13;2.20;;;7.50;87.50;;;;;;5097232;28;20023;-80
2020/12/01 02:03:44;;;;;;;5.40;2.90;;;7.50;87.10;;;;;;5101518;27;20079;-80
2020/12/01 02:06:23;;;;;;;4.20;1.97;;;7.50;87.00;;;;;;5116566;27;20023;-79
2020/12/01 02:09:05;;;;;;;4.23;1.50;;;7.40;86.80;;;;;;5116905;27;20019;-79
2020/12/01 02:11:34;;;;;;;5.80;1.10;;;7.40;86.90;;;;;;5134513;27;20027;-79
2020/12/01 02:14:03;;;;;;;5.87;0.90;;;7.50;86.80;;;;;;5116522;27;20382;-79
2020/12/01 02:16:29;;;;;;;3.10;0.60;;;7.50;86.80;;;;;;5134296;27;20429;-79
2020/12/01 02:18:54;;;;;;;6.97;0.67;;;7.40;86.70;;;;;;5135235;27;20035;-78
2020/12/01 02:21:28;;;;;;;5.20;0.40;;;7.40;86.80;;;;;;5115267;27;20110;-81
2020/12/01 02:23:56;;;;;;;3.27;0.50;;;7.40;86.80;;;;;;5135142;27;20076;-80
2020/12/01 02:26:21;;;;;;;4.23;0.90;;;7.40;86.90;;;;;;5134583;27;20019;-81
2020/12/01 02:28:47;;;;;;;4.07;0.60;;;7.40;86.90;;;;;;5099484;27;20084;-78
2020/12/01 02:31:13;;;;;;;4.10;0.40;;;7.40;86.90;;;;;;5134457;27;20050;-78
2020/12/01 02:33:39;;;;;;;6.27;0.60;;;7.40;86.90;;;;;;5118089;27;20657;-79
2020/12/01 02:36:04;;;;;;;3.73;0.47;;;7.40;87.00;;;;;;5115969;27;20034;-79
2020/12/01 02:38:30;;;;;;;7.20;0.90;;;7.40;87.00;;;;;;5115433;27;20037;-79
2020/12/01 02:40:55;;;;;;;5.57;0.70;;;7.40;87.10;;;;;;5116092;27;20479;-79
2020/12/01 02:43:21;;;;;;;4.50;0.40;;;7.40;87.10;;;;;;5115563;27;20031;-80
2020/12/01 02:45:47;;;;;;;3.90;0.67;;;7.50;87.00;;;;;;5115991;27;20058;-79
2020/12/01 02:48:12;;;;;;;2.10;0.47;;;7.40;87.00;;;;;;5083961;28;20356;-79
2020/12/01 02:50:38;;;;;;;3.10;0.60;;;7.50;87.00;;;;;;5094564;28;20052;-80
2020/12/01 02:53:04;;;;;;;4.33;0.60;;;7.50;87.00;;;;;;5115955;27;20038;-79
2020/12/01 02:55:29;;;;;;;6.13;0.40;;;7.50;87.00;;;;;;5133682;27;20031;-78
2020/12/01 02:57:55;;;;;;;4.20;1.10;;;7.50;86.90;;;;;;5115906;27;20451;-78
2020/12/01 03:00:21;;;;;;;3.80;0.43;;;7.60;87.00;;;;;;5098746;27;20118;-79
2020/12/01 03:02:46;;;;;;;4.33;0.60;;;7.60;86.90;;;;;;5078270;28;20036;-79
2020/12/01 03:05:12;;;;;;;6.07;0.80;;;7.70;86.90;;;;;;5106608;27;20023;-79
2020/12/01 03:07:38;;;;;;;5.43;0.50;;;7.70;86.80;;;;;;5115017;27;20031;-79
2020/12/01 03:10:06;;;;;;;6.53;0.60;;;7.60;86.70;;;;;;5098752;27;20023;-78
2020/12/01 03:12:31;;;;;;;2.97;0.40;;;7.70;86.60;;;;;;5114709;27;20027;-79
2020/12/01 03:14:58;;;;;;;2.63;0.50;;;7.60;86.60;;;;;;5081413;27;20045;-78
2020/12/01 03:17:24;;;;;;;2.93;0.40;;;7.60;86.60;;;;;;5097491;27;20474;-80
2020/12/01 03:19:49;;;;;;;4.17;0.50;;;7.60;86.70;;;;;;5110242;27;20046;-79
2020/12/01 03:22:15;;;;;;;6.17;1.00;;;7.50;86.60;;;;;;5092775;27;20024;-78
2020/12/01 03:24:40;;;;;;;7.03;0.50;;;7.50;86.70;;;;;;5132344;27;20099;-78
2020/12/01 03:27:06;;;;;;;6.37;0.50;;;7.50;86.80;;;;;;5097676;27;20544;-78
2020/12/01 03:29:32;;;;;;;4.30;0.70;;;7.50;86.80;;;;;;5113346;27;20030;-77
2020/12/01 03:31:57;;;;;;;4.17;0.70;;;7.50;86.90;;;;;;5115076;27;20052;-79
2020/12/01 03:34:23;;;;;;;3.63;0.60;;;7.50;86.90;;;;;;5112754;27;20023;-79
2020/12/01 03:36:49;;;;;;;3.17;0.57;;;7.50;86.80;;;;;;5114653;27;20027;-79
2020/12/01 03:39:14;;;;;;;4.83;0.50;;;7.50;86.80;;;;;;5132743;27;20467;-79
2020/12/01 03:41:40;;;;;;;6.13;0.83;;;7.50;86.80;;;;;;5114135;27;20030;-79
2020/12/01 03:44:06;;;;;;;4.50;0.80;;;7.50;86.80;;;;;;5132444;27;20431;-79
2020/12/01 03:46:31;;;;;;;5.30;0.57;;;7.50;86.80;;;;;;5079619;27;20114;-79
2020/12/01 03:48:58;;;;;;;4.63;0.70;;;7.50;86.80;;;;;;5095443;27;20464;-79
2020/12/01 03:51:25;;;;;;;4.03;0.57;;;7.50;86.90;;;;;;5114205;27;20120;-80
2020/12/01 03:53:51;;;;;;;5.87;0.63;;;7.50;86.90;;;;;;5132113;27;20058;-79
2020/12/01 03:56:19;;;;;;;5.47;0.60;;;7.50;86.90;;;;;;5109447;28;20198;-79
2020/12/01 03:58:45;;;;;;;6.33;0.70;;;7.50;86.90;;;;;;5120950;27;20588;-78
2020/12/01 04:01:10;;;;;;;4.07;0.70;;;7.50;86.90;;;;;;5113968;27;20031;-79
2020/12/01 04:03:36;;;;;;;7.57;0.80;;;7.50;87.00;;;;;;5113283;27;20026;-80
2020/12/01 04:06:05;;;;;;;6.77;0.90;;;7.50;87.10;;;;;;5112372;27;20067;-80
2020/12/01 04:08:31;;;;;;;5.60;0.87;;;7.50;87.20;;;;;;5112255;27;20031;-80
2020/12/01 04:10:57;;;;;;;7.83;0.90;;;7.50;87.30;;;;;;5094282;28;20089;-79
2020/12/01 04:13:22;;;;;;;12.13;1.40;;;7.50;87.30;;;;;;5077687;27;20416;-79
2020/12/01 04:15:48;;;;;;;15.23;1.60;;;7.40;87.30;;;;;;5095293;27;20079;-79
2020/12/01 04:18:14;;;;;;;10.07;0.97;;;7.40;87.40;;;;;;5094864;27;20030;-79
2020/12/01 04:20:40;;;;;;;8.80;1.40;;;7.40;87.60;;;;;;5099259;27;20035;-79
2020/12/01 04:23:06;;;;;;;13.90;1.23;;;7.40;87.70;;;;;;5132076;27;20037;-80
2020/12/01 04:25:32;;;;;;;14.20;1.63;;;7.40;87.80;;;;;;5112786;27;20130;-80
2020/12/01 04:27:58;;;;;;;13.30;1.33;;;7.40;87.90;;;;;;5132278;27;20034;-79
2020/12/01 04:30:25;;;;;;;6.60;0.93;;;7.40;88.00;;;;;;5131684;27;20031;-79
2020/12/01 04:32:52;;;;;;;8.17;1.20;;;7.30;88.00;;;;;;5113142;27;20023;-79
2020/12/01 04:35:23;;;;;;;11.53;1.10;;;7.30;88.00;;;;;;5106113;27;20134;-79
2020/12/01 04:37:48;;;;;;;17.07;2.33;;;7.30;88.00;;;;;;5130363;27;20034;-79
2020/12/01 04:40:21;;;;;;;8.10;1.10;;;7.30;88.00;;;;;;5130830;27;20118;-80
2020/12/01 04:42:52;;;;;;;9.32;1.92;;;7.30;88.00;;;;;;5111075;27;20019;-80
2020/12/01 04:45:20;;;;;;;14.63;1.47;;;7.20;88.00;;;;;;5090446;28;20026;-80
2020/12/01 04:48:03;;;;;;;15.43;2.10;;;7.20;88.10;;;;;;5129796;27;20498;-80
2020/12/01 04:50:34;;;;;;;10.18;1.33;;;7.20;88.30;;;;;;5123349;28;20116;-80
2020/12/01 04:53:24;;;;;;;14.13;1.77;;;7.10;88.30;;;;;;5131715;28;20035;-80
2020/12/01 04:56:24;;;;;;;16.23;2.00;;;7.10;88.40;;;;;;5130242;28;20076;-78
2020/12/01 04:59:40;;;;;;;12.33;2.03;;;7.00;88.40;;;;;;5129366;28;20015;-79
2020/12/01 05:02:43;;;;;;;12.10;1.17;;;7.00;88.40;;;;;;5113081;28;20055;-80
2020/12/01 05:05:22;;;;;;;11.10;1.23;;;6.90;88.50;;;;;;5102420;28;20019;-80
2020/12/01 05:08:29;;;;;;;13.90;1.60;;;6.90;88.60;;;;;;5112233;28;20585;-80
2020/12/01 05:11:00;;;;;;;15.63;1.70;;;6.80;88.60;;;;;;5112414;28;20034;-80
2020/12/01 05:13:32;;;;;;;14.83;1.37;;;6.80;88.70;;;;;;5114118;28;20030;-80
2020/12/01 05:16:21;;;;;;;13.57;1.77;;;6.80;88.80;;;;;;5110979;28;20031;-79
2020/12/01 05:18:47;;;;;;;16.53;1.77;;;6.80;88.90;;;;;;5110402;28;20398;-79
2020/12/01 05:21:13;;;;;;;19.03;1.40;;;6.70;88.90;;;;;;5095438;28;20031;-79
2020/12/01 05:23:43;;;;;;;12.97;1.20;;;6.70;89.00;;;;;;5095634;28;20023;-79
2020/12/01 05:26:11;;;;;;;10.23;1.07;;;6.70;89.00;;;;;;5109694;28;20028;-81
2020/12/01 05:28:51;;;;;;;22.57;2.10;;;6.80;89.10;;;;;;5111171;28;20023;-79
2020/12/01 05:31:20;;;;;;;14.10;1.57;;;6.70;89.10;;;;;;5092904;28;20390;-79
2020/12/01 05:33:58;;;;;;;18.70;2.57;;;6.70;89.10;;;;;;5092338;28;20060;-79
2020/12/01 05:36:37;;;;;;;20.53;2.03;;;6.70;89.20;;;;;;5130363;28;20106;-79
2020/12/01 05:39:11;;;;;;;19.67;1.70;;;6.70;89.20;;;;;;5128105;28;20026;-79
2020/12/01 05:41:37;;;;;;;12.03;1.73;;;6.70;89.20;;;;;;5105412;28;20093;-78
2020/12/01 05:44:14;;;;;;;12.83;1.77;;;6.70;89.20;;;;;;5131475;28;20024;-79
2020/12/01 05:46:52;;;;;;;11.63;1.57;;;6.70;89.20;;;;;;5110501;28;20023;-79
2020/12/01 05:49:29;;;;;;;18.03;1.50;;;6.80;89.20;;;;;;5112117;28;20035;-79
2020/12/01 05:52:18;;;;;;;14.07;1.57;;;6.80;89.20;;;;;;5101173;28;20059;-80
2020/12/01 05:55:02;;;;;;;17.30;2.23;;;6.90;89.20;;;;;;5130519;28;20020;-79
2020/12/01 05:57:28;;;;;;;16.23;3.20;;;6.90;89.10;;;;;;5117759;27;20431;-79
2020/12/01 05:59:56;;;;;;;13.40;3.00;;;6.90;89.00;;;;;;5116052;27;20031;-80
2020/12/01 06:02:40;;;;;;;14.57;2.10;;;7.00;89.00;;;;;;5116947;27;20023;-79
2020/12/01 06:05:09;;;;;;;11.77;1.73;;;7.10;89.00;;;;;;5135733;27;20482;-79
2020/12/01 06:07:36;;;;;;;15.83;2.57;;;7.20;88.90;;;;;;5136386;27;20027;-79
2020/12/01 06:10:16;;;;;;;16.73;2.53;;;7.20;88.80;;;;;;5135688;27;20500;-80
2020/12/01 06:12:52;;;;;;;14.97;2.27;;;7.20;88.80;;;;;;5118755;27;20062;-80
2020/12/01 06:15:20;;;;;;;13.87;2.03;;;7.30;88.70;;;;;;5117249;27;20027;-80
2020/12/01 06:18:01;;;;;;;12.90;2.30;;;7.40;88.60;;;;;;5116258;27;20033;-80
2020/12/01 06:20:34;;;;;;;9.20;1.90;;;7.40;88.50;;;;;;5135136;27;20031;-79
2020/12/01 06:23:21;;;;;;;13.90;2.17;;;7.40;88.90;;;;;;5116429;27;20027;-80
2020/12/01 06:25:57;;;;;;;13.67;1.80;;;7.40;88.40;;;;;;5115689;27;20027;-80
2020/12/01 06:28:41;;;;;;;12.03;1.97;;;7.50;88.40;;;;;;5119780;27;20444;-80
2020/12/01 06:31:50;;;;;;;11.33;1.90;;;7.60;88.40;;;;;;5136877;27;20059;-79
2020/12/01 06:34:19;;;;;;;17.87;1.83;;;7.70;88.20;;;;;;5135801;27;20031;-79
2020/12/01 06:37:03;;;;;;;8.47;1.90;;;7.70;88.10;;;;;;5154345;27;20054;-79
2020/12/01 06:39:44;;;;;;;9.70;2.23;;;7.70;88.10;;;;;;5136407;27;20390;-79
2020/12/01 06:42:16;;;;;;;10.83;1.93;;;7.80;88.10;;;;;;5155210;27;20054;-79
2020/12/01 06:44:47;;;;;;;11.93;2.00;;;7.80;88.00;;;;;;5128621;27;20463;-80
2020/12/01 06:47:12;;;;;;;13.63;2.87;;;7.90;88.00;;;;;;5133918;27;20383;-79
2020/12/01 06:49:39;;;;;;;10.33;2.40;;;7.90;87.90;;;;;;5097961;27;20031;-79
2020/12/01 06:52:14;;;;;;;13.93;2.97;;;8.00;87.80;;;;;;5110849;27;20043;-79
2020/12/01 06:54:48;;;;;;;13.67;2.77;;;7.90;87.70;;;;;;5111108;27;20035;-79
2020/12/01 06:57:36;;;;;;;11.93;2.80;;;7.90;87.70;;;;;;5121127;27;20105;-78
2020/12/01 07:00:07;;;;;;;13.70;3.17;;;7.90;87.70;;;;;;5118236;27;20031;-80
2020/12/01 07:02:35;;;;;;;13.57;4.63;;;7.90;87.60;;;;;;5114415;27;20103;-79
2020/12/01 07:05:05;;;;;;;15.50;4.53;;;7.90;87.70;;;;;;5132860;27;20359;-80
2020/12/01 07:07:33;;;;;;;13.93;4.70;;;8.00;87.70;;;;;;5133966;27;20049;-80
2020/12/01 07:10:00;;;;;;;13.60;5.27;;;7.90;87.70;;;;;;5114205;27;20043;-80
2020/12/01 07:12:46;;;;;;;14.83;5.57;;;8.00;87.70;;;;;;5098562;27;20023;-80
2020/12/01 07:15:26;;;;;;;13.07;5.87;;;8.00;87.60;;;;;;5133630;27;20432;-79
2020/12/01 07:18:02;;;;;;;19.87;7.63;;;8.10;87.60;;;;;;5113077;28;20106;-80
2020/12/01 07:20:57;;;;;;;17.37;7.93;;;8.10;87.60;;;;;;5108233;27;20363;-79
2020/12/01 07:23:29;;;;;;;18.13;7.10;;;8.20;87.60;;;;;;5080883;28;20098;-80
2020/12/01 07:26:10;;;;;;;20.55;8.75;;;8.20;87.40;;;;;;5120899;27;20134;-80
2020/12/01 07:28:52;;;;;;;18.93;7.40;;;8.20;87.40;;;;;;5114692;27;20024;-79
2020/12/01 07:31:33;;;;;;;17.60;6.27;;;8.20;87.30;;;;;;5114685;27;20439;-78
2020/12/01 07:34:01;;;;;;;17.00;7.53;;;8.20;87.30;;;;;;5122871;27;20054;-79
2020/12/01 07:36:40;;;;;;;19.37;8.77;;;8.20;87.30;;;;;;5114842;27;20118;-78
2020/12/01 07:39:17;;;;;;;20.67;6.83;;;8.30;87.30;;;;;;5127416;27;20535;-80
2020/12/01 07:42:03;;;;;;;19.00;6.33;;;8.30;87.20;;;;;;5114933;27;20366;-80
2020/12/01 07:44:42;;;;;;;18.00;7.03;;;8.30;87.20;;;;;;5134189;27;20043;-80
2020/12/01 07:47:15;;;;;;;20.53;8.40;;;8.30;87.20;;;;;;5097873;28;20073;-80
2020/12/01 07:49:40;;;;;;;22.42;9.20;;;8.40;87.20;;;;;;5113137;28;20039;-80
2020/12/01 07:52:15;;;;;;;19.37;7.63;;;8.40;87.10;;;;;;5112032;27;20050;-79
2020/12/01 07:54:45;;;;;;;23.07;10.00;;;8.50;87.10;;;;;;5109534;27;20019;-79
2020/12/01 07:57:12;;;;;;;20.97;8.33;;;8.50;87.00;;;;;;5114652;27;20025;-79
2020/12/01 07:59:45;;;;;;;16.17;7.33;;;8.50;86.90;;;;;;5114176;27;20031;-79
2020/12/01 08:02:13;;;;;;;19.17;7.07;;;8.60;86.90;;;;;;5097129;27;20183;-79
2020/12/01 08:04:38;;;;;;;20.77;10.33;;;8.60;87.00;;;;;;5115783;27;20041;-79
2020/12/01 08:07:06;;;;;;;21.27;11.10;;;8.60;86.90;;;;;;5114205;27;20468;-79
2020/12/01 08:09:32;;;;;;;16.83;8.90;;;8.70;86.90;;;;;;5132715;27;20104;-79
2020/12/01 08:12:09;;;;;;;20.37;10.03;;;8.80;86.80;;;;;;5113125;27;20026;-79
2020/12/01 08:14:36;;;;;;;14.43;8.70;;;8.80;86.70;;;;;;5114635;27;20027;-79
2020/12/01 08:17:10;;;;;;;16.93;8.00;;;8.80;86.60;;;;;;5131869;27;20019;-80
2020/12/01 08:19:36;;;;;;;15.67;8.73;;;8.80;86.50;;;;;;5113557;28;20044;-80
2020/12/01 08:22:07;;;;;;;16.60;6.77;;;8.90;86.50;;;;;;5131150;27;20029;-79
2020/12/01 08:24:37;;;;;;;11.90;7.03;;;8.90;86.40;;;;;;5113862;27;20466;-79
2020/12/01 08:27:06;;;;;;;18.03;10.47;;;8.90;86.30;;;;;;5113178;27;20086;-79
2020/12/01 08:29:35;;;;;;;19.80;9.90;;;9.00;86.40;;;;;;5113914;27;20063;-79
2020/12/01 08:32:34;;;;;;;23.60;10.40;;;9.00;86.30;;;;;;5114518;27;20027;-80
2020/12/01 08:35:08;;;;;;;16.47;9.83;;;9.10;86.30;;;;;;5135327;27;20073;-79
2020/12/01 08:38:05;;;;;;;13.67;8.57;;;9.10;86.30;;;;;;5120454;28;20023;-79
2020/12/01 08:40:51;;;;;;;14.27;8.13;;;9.20;86.10;;;;;;5109894;27;20042;-78
2020/12/01 08:44:04;;;;;;;17.37;10.10;;;9.20;85.90;;;;;;5118892;28;20100;-79
2020/12/01 08:46:31;;;;;;;14.90;8.97;;;9.20;86.00;;;;;;5050503;28;20059;-79
2020/12/01 08:49:07;;;;;;;15.93;9.20;;;9.20;85.80;;;;;;5032523;28;20532;-79
2020/12/01 08:52:00;;;;;;;13.77;9.20;;;9.20;85.80;;;;;;5086412;28;20039;-78
2020/12/01 08:54:32;;;;;;;15.50;9.45;;;9.20;85.80;;;;;;5133296;28;20023;-79
2020/12/01 08:57:00;;;;;;;17.20;9.47;;;9.10;85.80;;;;;;5114041;28;20343;-81
2020/12/01 08:59:42;;;;;;;14.80;10.07;;;9.10;85.90;;;;;;5131959;28;20023;-79
2020/12/01 09:02:10;;;;;;;19.60;12.00;;;9.10;85.90;;;;;;5113353;28;20028;-79
2020/12/01 09:04:37;;;;;;;22.40;13.40;;;9.20;86.00;;;;;;5093317;28;20050;-79
2020/12/01 09:07:24;;;;;;;21.97;13.43;;;9.30;86.10;;;;;;5075653;28;20543;-80
2020/12/01 09:09:54;;;;;;;20.80;12.40;;;9.40;86.00;;;;;;5127384;28;20479;-80
2020/12/01 09:21:00;;;;;;;;;;;9.50;85.70;;;;;;5102046;28;20043;-79
2020/12/01 09:23:35;;;;;;;15.23;10.37;;;9.50;85.60;;;;;;5113722;28;19911;-80
2020/12/01 09:26:23;;;;;;;23.33;12.00;;;9.40;85.70;;;;;;5112002;28;20019;-79
2020/12/01 09:28:51;;;;;;;19.73;10.27;;;9.30;85.80;;;;;;5096225;28;20134;-79
2020/12/01 09:31:18;;;;;;;24.80;11.40;;;9.30;86.00;;;;;;5104318;28;20067;-80
2020/12/01 09:33:44;;;;;;;24.13;12.33;;;9.20;86.30;;;;;;5110100;27;20030;-77
2020/12/01 09:36:18;;;;;;;21.53;11.83;;;9.20;86.50;;;;;;5107836;27;20031;-78
2020/12/01 09:38:44;;;;;;;15.20;9.53;;;9.20;86.60;;;;;;5133489;27;20023;-80
2020/12/01 09:41:15;;;;;;;18.17;12.17;;;9.20;86.70;;;;;;5098850;27;20364;-80
2020/12/01 09:43:54;;;;;;;22.03;12.80;;;9.30;86.90;;;;;;5115837;27;20027;-80
2020/12/01 09:46:28;;;;;;;15.00;9.43;;;9.30;86.90;;;;;;5126850;27;20031;-80
2020/12/01 09:48:54;;;;;;;18.20;10.63;;;9.30;86.90;;;;;;5104494;27;20034;-80
2020/12/01 09:51:19;;;;;;;16.37;8.73;;;9.30;86.90;;;;;;5099296;27;20429;-79
2020/12/01 10:21:11;;;;;;;72.10;44.87;;;9.50;86.70;;;;;;5050351;28;20496;-78
2020/12/01 10:36:21;;;;;;;36.07;10.10;;;9.30;87.20;;;;;;5118550;27;20188;-80
2020/12/01 10:38:47;;;;;;;25.63;9.70;;;9.30;87.20;;;;;;5116178;27;20031;-80
2020/12/01 10:41:12;;;;;;;35.30;8.57;;;9.30;87.20;;;;;;5133573;27;20033;-79
2020/12/01 10:43:39;;;;;;;36.30;8.57;;;9.30;87.10;;;;;;5115871;27;20375;-79
2020/12/01 10:46:05;;;;;;;37.63;8.93;;;9.30;87.00;;;;;;5114725;27;20027;-79
2020/12/01 10:48:31;;;;;;;45.67;9.23;;;9.20;87.10;;;;;;5115331;27;20102;-80
2020/12/01 10:50:56;;;;;;;44.20;9.00;;;9.20;87.10;;;;;;5114360;27;20078;-79
2020/12/01 10:53:22;;;;;;;30.57;7.60;;;9.30;87.00;;;;;;5098813;27;20080;-80
2020/12/01 10:55:47;;;;;;;44.53;7.57;;;9.30;86.90;;;;;;5098902;27;20031;-80
2020/12/01 10:58:13;;;;;;;34.53;6.93;;;9.30;86.90;;;;;;5119790;27;20085;-79
2020/12/01 11:00:39;;;;;;;38.37;8.97;;;9.30;86.60;;;;;;5123838;27;20076;-79
2020/12/01 11:03:04;;;;;;;39.47;4.50;;;9.40;86.70;;;;;;5134998;27;20023;-79
2020/12/01 11:05:31;;;;;;;32.97;5.90;;;9.40;86.50;;;;;;5115086;27;20024;-79
2020/12/01 11:07:57;;;;;;;35.63;8.17;;;9.40;86.40;;;;;;5093629;28;20076;-80
2020/12/01 11:10:24;;;;;;;36.00;5.67;;;9.50;86.30;;;;;;5114130;27;20015;-81
2020/12/01 11:12:50;;;;;;;41.60;6.30;;;9.60;86.40;;;;;;5114790;27;20066;-79
2020/12/01 11:15:16;;;;;;;39.60;8.43;;;9.60;86.10;;;;;;5114225;27;20503;-79
2020/12/01 11:17:42;;;;;;;39.57;6.63;;;9.60;85.90;;;;;;5132951;27;20047;-79
2020/12/01 11:20:10;;;;;;;33.63;6.83;;;9.60;86.00;;;;;;5096698;27;20070;-79
2020/12/01 11:22:36;;;;;;;32.57;6.17;;;9.50;86.00;;;;;;5132776;27;20027;-79
2020/12/01 11:25:02;;;;;;;35.07;5.23;;;9.60;86.10;;;;;;5113953;27;20122;-80
2020/12/01 11:27:28;;;;;;;33.83;8.70;;;9.50;86.00;;;;;;5114622;27;20015;-79
2020/12/01 11:29:53;;;;;;;33.57;6.67;;;9.60;86.20;;;;;;5113795;27;20035;-81
2020/12/01 11:32:19;;;;;;;35.50;7.70;;;9.60;86.20;;;;;;5114214;27;20211;-79
2020/12/01 11:34:44;;;;;;;31.97;6.87;;;9.60;86.00;;;;;;5132517;27;20031;-78
2020/12/01 11:37:10;;;;;;;34.77;4.70;;;9.60;85.70;;;;;;5113797;27;20028;-79
2020/12/01 11:39:36;;;;;;;29.80;5.73;;;9.60;85.50;;;;;;5114713;27;20032;-79
2020/12/01 11:42:02;;;;;;;37.70;6.67;;;9.60;85.40;;;;;;5104231;28;20024;-78
2020/12/01 11:44:28;;;;;;;35.47;5.17;;;9.60;86.00;;;;;;5110976;27;20023;-79
2020/12/01 11:46:56;;;;;;;28.27;5.87;;;9.60;85.40;;;;;;5085721;27;20027;-78
2020/12/01 11:49:22;;;;;;;37.80;5.47;;;9.60;85.30;;;;;;5113864;27;20474;-79
2020/12/01 11:51:48;;;;;;;37.90;8.27;;;9.60;85.10;;;;;;5114035;27;20208;-78
2020/12/01 11:54:15;;;;;;;28.67;5.30;;;9.60;85.30;;;;;;5112392;28;20107;-79
2020/12/01 11:56:41;;;;;;;31.40;5.43;;;9.60;85.20;;;;;;5114574;27;20076;-79
2020/12/01 11:59:06;;;;;;;28.47;4.30;;;9.60;85.10;;;;;;5113275;27;20027;-80
2020/12/01 12:01:34;;;;;;;28.00;4.63;;;9.60;84.70;;;;;;5114353;27;20076;-80
2020/12/01 12:03:59;;;;;;;27.90;5.00;;;9.70;84.70;;;;;;5095940;27;20471;-80
2020/12/01 12:06:25;;;;;;;23.03;4.63;;;9.70;84.60;;;;;;5131541;27;20027;-80
2020/12/01 12:08:50;;;;;;;30.40;4.97;;;9.70;84.60;;;;;;5093486;28;20065;-80
2020/12/01 12:11:16;;;;;;;22.10;4.83;;;9.80;84.60;;;;;;5093491;28;20043;-80
2020/12/01 12:13:46;;;;;;;31.57;4.37;;;9.80;84.40;;;;;;5093818;28;20031;-80
2020/12/01 12:16:13;;;;;;;32.40;4.07;;;9.80;84.10;;;;;;5076619;27;20036;-80
2020/12/01 12:18:38;;;;;;;32.07;5.40;;;9.80;83.80;;;;;;5132383;27;20110;-80
2020/12/01 12:21:04;;;;;;;33.63;4.80;;;9.80;83.90;;;;;;5113249;27;20118;-80
2020/12/01 12:23:30;;;;;;;35.93;5.43;;;9.90;83.90;;;;;;5113743;27;20386;-80
2020/12/01 12:25:55;;;;;;;34.13;4.97;;;9.90;83.30;;;;;;5113413;27;20030;-79
2020/12/01 12:28:21;;;;;;;25.53;4.63;;;9.90;83.10;;;;;;5113453;27;20034;-79
2020/12/01 12:30:47;;;;;;;30.13;5.17;;;10.00;83.20;;;;;;5113335;27;20031;-79
2020/12/01 12:33:13;;;;;;;31.63;5.17;;;10.00;83.30;;;;;;5092515;28;20219;-79
2020/12/01 12:35:39;;;;;;;27.83;4.63;;;10.00;83.10;;;;;;5090762;28;20472;-80
2020/12/01 12:38:05;;;;;;;32.87;4.77;;;10.00;83.00;;;;;;5099992;28;20030;-79
2020/12/01 12:40:31;;;;;;;25.93;3.97;;;10.10;82.90;;;;;;5072996;27;20458;-79
2020/12/01 12:42:56;;;;;;;29.43;4.23;;;10.10;82.90;;;;;;5112814;27;20042;-79
2020/12/01 12:45:22;;;;;;;25.03;3.63;;;10.10;82.70;;;;;;5096063;28;20034;-80
2020/12/01 12:47:48;;;;;;;29.53;3.80;;;10.00;82.60;;;;;;5095763;27;20436;-80
2020/12/01 12:50:14;;;;;;;25.47;4.67;;;10.00;82.50;;;;;;5112716;28;20154;-79
2020/12/01 12:52:39;;;;;;;38.37;4.30;;;10.00;82.80;;;;;;5124969;28;20363;-80
2020/12/01 12:55:06;;;;;;;25.27;5.57;;;10.00;82.60;;;;;;5097092;28;20117;-79
2020/12/01 12:57:32;;;;;;;31.67;3.50;;;10.00;82.60;;;;;;5132391;28;20072;-80
2020/12/01 12:59:58;;;;;;;26.60;3.87;;;10.00;82.50;;;;;;5093216;28;20032;-79
2020/12/01 13:02:23;;;;;;;24.93;4.00;;;9.90;82.20;;;;;;5110196;28;20437;-80
2020/12/01 13:04:49;;;;;;;24.57;4.43;;;9.90;82.50;;;;;;5076711;28;20135;-80
2020/12/01 13:07:15;;;;;;;31.90;5.87;;;10.00;82.60;;;;;;5095809;28;20054;-80
2020/12/01 13:09:40;;;;;;;31.80;5.60;;;10.00;82.70;;;;;;5110161;27;20494;-80
2020/12/01 13:12:06;;;;;;;28.70;3.83;;;10.10;82.70;;;;;;5079659;28;20040;-80
2020/12/01 13:14:32;;;;;;;24.90;4.43;;;10.10;82.40;;;;;;5080698;28;20031;-80
2020/12/01 13:16:57;;;;;;;24.17;3.50;;;10.10;82.20;;;;;;5124524;27;20527;-80
2020/12/01 13:19:23;;;;;;;26.13;4.60;;;10.10;82.00;;;;;;5100714;27;20027;-80
2020/12/01 13:21:48;;;;;;;28.83;3.93;;;10.20;81.70;;;;;;5137205;27;20027;-80
2020/12/01 13:24:15;;;;;;;28.03;6.03;;;10.20;82.00;;;;;;5100674;27;20115;-80
2020/12/01 13:26:40;;;;;;;32.57;4.30;;;10.20;81.80;;;;;;5125873;27;20061;-80
2020/12/01 13:29:07;;;;;;;31.13;6.03;;;10.20;81.60;;;;;;5129869;27;20023;-79
2020/12/01 13:31:32;;;;;;;26.00;4.33;;;10.10;81.40;;;;;;5129432;27;20038;-80
2020/12/01 13:33:58;;;;;;;29.13;5.40;;;10.10;81.50;;;;;;5113801;27;20032;-79
2020/12/01 13:36:25;;;;;;;25.90;4.87;;;10.10;81.30;;;;;;5093291;28;20475;-80
2020/12/01 13:38:51;;;;;;;24.37;4.97;;;10.00;81.20;;;;;;5118105;27;20026;-80
2020/12/01 13:41:19;;;;;;;26.87;3.33;;;10.00;81.30;;;;;;5134590;27;20091;-79
2020/12/01 13:43:45;;;;;;;27.13;4.27;;;10.00;81.30;;;;;;5116724;27;20055;-80
2020/12/01 13:46:11;;;;;;;25.83;4.13;;;10.00;81.40;;;;;;5124122;27;20028;-80
2020/12/01 13:48:37;;;;;;;25.40;4.53;;;9.90;81.30;;;;;;5109522;27;20073;-79